Time;durP1;ratioP1;P1;durP2;ratioP2;P2;SDS_P1;SDS_P2;PMS_P1;PMS_P2;Temp;Humidity;BMP_temperature;BMP_pressure;BME280_temperature;BME280_humidity;BME280_pressure;Samples;Min_cycle;Max_cycle;Signal;HPM_P1;HPM_P2
2022/06/20 00:00:41;;;;;;;12.40;4.72;;;21.50;99.90;;;;;;4951049;28;20221;-73
2022/06/20 00:03:21;;;;;;;14.57;4.60;;;21.60;99.90;;;;;;4948041;28;20222;-73
2022/06/20 00:05:48;;;;;;;8.13;4.15;;;21.50;99.90;;;;;;4948100;29;20729;-73
2022/06/20 00:08:16;;;;;;;7.40;4.38;;;21.40;99.90;;;;;;4949755;29;20222;-73
2022/06/20 00:10:44;;;;;;;10.82;4.40;;;21.30;99.90;;;;;;4946686;28;20194;-70
2022/06/20 00:13:18;;;;;;;11.48;4.53;;;21.30;99.90;;;;;;4952808;28;20225;-71
2022/06/20 00:15:47;;;;;;;9.32;4.40;;;21.40;99.90;;;;;;4949899;28;20189;-73
2022/06/20 00:18:14;;;;;;;8.50;4.40;;;21.40;99.90;;;;;;4951224;28;20704;-73
2022/06/20 00:20:41;;;;;;;10.88;4.40;;;21.40;99.90;;;;;;4949991;28;20210;-73
2022/06/20 00:23:08;;;;;;;8.80;4.10;;;21.50;99.90;;;;;;4950762;29;20714;-73
2022/06/20 00:25:36;;;;;;;8.25;4.65;;;21.40;99.90;;;;;;4950489;28;20201;-72
2022/06/20 00:28:05;;;;;;;12.30;4.57;;;21.20;99.90;;;;;;4948297;28;20218;-72
2022/06/20 00:30:32;;;;;;;11.57;4.43;;;21.20;99.90;;;;;;4943757;29;20334;-69
2022/06/20 00:32:59;;;;;;;9.55;4.18;;;21.20;99.90;;;;;;4952118;28;20219;-73
2022/06/20 00:35:25;;;;;;;8.25;4.72;;;21.30;99.90;;;;;;4950442;28;20198;-72
2022/06/20 00:37:56;;;;;;;8.25;4.05;;;21.20;99.90;;;;;;4950114;29;20587;-73
2022/06/20 00:40:43;;;;;;;8.50;4.40;;;21.30;99.90;;;;;;4951907;28;20257;-73
2022/06/20 00:43:14;;;;;;;8.60;4.63;;;21.20;99.90;;;;;;4948529;29;20229;-73
2022/06/20 00:45:43;;;;;;;8.17;4.57;;;21.20;99.90;;;;;;4944667;29;20761;-72
2022/06/20 00:48:19;;;;;;;8.45;3.90;;;21.10;99.90;;;;;;4949477;29;20226;-73
2022/06/20 00:50:51;;;;;;;8.53;4.10;;;21.10;99.90;;;;;;4949290;29;20210;-73
2022/06/20 00:53:26;;;;;;;10.37;3.97;;;21.10;99.90;;;;;;4951085;28;20218;-72
2022/06/20 00:56:04;;;;;;;8.17;4.33;;;21.20;99.90;;;;;;4949459;28;20198;-73
2022/06/20 00:58:46;;;;;;;7.27;4.40;;;21.20;99.90;;;;;;4951261;28;20217;-73
2022/06/20 01:01:15;;;;;;;12.43;4.43;;;21.20;99.90;;;;;;4947774;29;20194;-73
2022/06/20 01:03:49;;;;;;;14.80;4.90;;;21.20;99.90;;;;;;4947660;29;20286;-73
2022/06/20 01:06:28;;;;;;;11.10;4.47;;;21.20;99.90;;;;;;4946140;29;20197;-72
2022/06/20 01:09:05;;;;;;;5.93;4.00;;;21.10;99.90;;;;;;4950901;28;20209;-73
2022/06/20 01:11:44;;;;;;;11.00;3.60;;;21.10;99.90;;;;;;4950058;29;20225;-72
2022/06/20 01:14:23;;;;;;;5.97;3.90;;;21.20;99.90;;;;;;4946154;28;20205;-73
2022/06/20 01:16:54;;;;;;;8.13;4.00;;;21.20;99.90;;;;;;4950435;28;20206;-73
2022/06/20 01:19:54;;;;;;;8.87;3.80;;;21.20;99.90;;;;;;4949468;28;20226;-73
2022/06/20 01:22:31;;;;;;;6.93;3.60;;;21.10;99.90;;;;;;4945664;28;20491;-72
2022/06/20 01:25:12;;;;;;;8.60;3.30;;;21.00;99.90;;;;;;4949042;28;20206;-73
2022/06/20 01:27:43;;;;;;;7.27;3.30;;;21.00;99.90;;;;;;4948488;28;20253;-72
2022/06/20 01:30:12;;;;;;;8.37;3.03;;;21.00;99.90;;;;;;4942232;29;20333;-73
2022/06/20 01:32:40;;;;;;;5.40;3.00;;;20.90;99.90;;;;;;4949809;28;20230;-73
2022/06/20 01:35:11;;;;;;;6.97;3.07;;;20.90;99.90;;;;;;4949208;28;20199;-73
2022/06/20 01:37:42;;;;;;;6.27;3.10;;;20.90;99.90;;;;;;4947836;28;20546;-73
2022/06/20 01:40:12;;;;;;;8.70;3.57;;;20.80;99.90;;;;;;4950304;28;20202;-73
2022/06/20 01:42:41;;;;;;;13.07;3.90;;;20.60;99.90;;;;;;4950279;29;20222;-73
2022/06/20 01:48:04;;;;;;;12.67;3.10;;;20.00;99.90;;;;;;4947752;29;20305;-73
2022/06/20 01:50:32;;;;;;;9.03;3.77;;;19.70;99.90;;;;;;4949321;29;20692;-72
2022/06/20 01:53:02;;;;;;;7.47;2.90;;;19.50;99.90;;;;;;4950514;28;20712;-72
2022/06/20 01:55:31;;;;;;;9.67;3.33;;;19.40;99.90;;;;;;4945219;28;20198;-72
2022/06/20 01:58:14;;;;;;;9.43;3.83;;;19.40;99.90;;;;;;4950407;28;20202;-73
2022/06/20 02:00:41;;;;;;;10.97;3.23;;;19.30;99.90;;;;;;4950484;28;20202;-72
2022/06/20 02:03:12;;;;;;;7.20;3.20;;;19.20;99.90;;;;;;4948261;28;20230;-72
2022/06/20 02:05:39;;;;;;;8.63;3.00;;;19.20;99.90;;;;;;4950998;28;20198;-71
2022/06/20 02:08:07;;;;;;;9.60;3.30;;;19.30;99.90;;;;;;4950032;28;20218;-72
2022/06/20 02:10:48;;;;;;;7.47;3.30;;;19.20;99.90;;;;;;4950721;28;20210;-73
2022/06/20 02:13:16;;;;;;;8.73;3.07;;;19.40;99.90;;;;;;4947223;29;20272;-72
2022/06/20 02:15:44;;;;;;;5.87;3.20;;;19.50;99.90;;;;;;4945383;28;20231;-72
2022/06/20 02:18:12;;;;;;;11.63;3.43;;;19.60;99.90;;;;;;4948139;28;20615;-72
2022/06/20 02:20:48;;;;;;;9.00;3.30;;;19.70;99.90;;;;;;4946419;28;20202;-73
2022/06/20 02:23:17;;;;;;;5.33;3.17;;;19.80;99.90;;;;;;4949485;28;20237;-73
2022/06/20 02:25:47;;;;;;;5.13;3.07;;;19.90;99.90;;;;;;4950801;28;20245;-72
2022/06/20 02:28:25;;;;;;;9.63;3.93;;;20.00;99.90;;;;;;4953066;28;20237;-73
2022/06/20 02:30:52;;;;;;;5.30;3.13;;;20.10;99.90;;;;;;4951916;29;20206;-73
2022/06/20 02:33:25;;;;;;;8.37;3.57;;;20.10;99.90;;;;;;4951982;28;20219;-71
2022/06/20 02:35:57;;;;;;;6.53;3.33;;;20.20;99.90;;;;;;4952962;29;20673;-73
2022/06/20 02:38:25;;;;;;;6.87;3.10;;;20.30;99.90;;;;;;4950236;29;20210;-73
2022/06/20 02:40:55;;;;;;;6.87;3.13;;;20.30;99.90;;;;;;4951494;29;20201;-73
2022/06/20 02:43:46;;;;;;;5.83;2.90;;;20.30;99.90;;;;;;4953887;28;20356;-73
2022/06/20 02:46:17;;;;;;;5.70;3.40;;;20.30;99.90;;;;;;4953353;29;20202;-73
2022/06/20 02:48:48;;;;;;;7.93;2.90;;;20.30;99.90;;;;;;4947306;29;20265;-73
2022/06/20 02:51:20;;;;;;;4.17;2.90;;;20.50;99.90;;;;;;4952940;28;20214;-73
2022/06/20 02:53:51;;;;;;;7.33;3.23;;;20.60;99.90;;;;;;4948065;28;20194;-73
2022/06/20 02:56:21;;;;;;;6.60;3.00;;;20.70;99.90;;;;;;4948992;28;20212;-74
2022/06/20 02:59:16;;;;;;;4.50;3.07;;;20.70;99.90;;;;;;4951703;29;20209;-73
2022/06/20 03:01:44;;;;;;;4.53;2.83;;;20.60;99.90;;;;;;4950250;28;20230;-73
2022/06/20 03:04:11;;;;;;;3.87;2.90;;;20.50;99.90;;;;;;4947713;28;20205;-73
2022/06/20 03:06:44;;;;;;;9.00;3.40;;;20.40;99.90;;;;;;4953234;28;20293;-71
2022/06/20 03:09:18;;;;;;;5.10;2.87;;;20.40;99.90;;;;;;4953695;28;20589;-74
2022/06/20 03:11:45;;;;;;;8.00;3.10;;;20.50;99.90;;;;;;4940061;28;20467;-73
2022/06/20 03:14:14;;;;;;;5.97;3.22;;;20.50;99.90;;;;;;4949303;29;20203;-73
2022/06/20 03:16:41;;;;;;;7.73;2.90;;;20.50;99.90;;;;;;4952295;28;20210;-73
2022/06/20 03:19:19;;;;;;;4.40;3.00;;;20.70;99.90;;;;;;4948053;29;20586;-72
2022/06/20 03:21:47;;;;;;;5.33;2.80;;;20.70;99.90;;;;;;4948466;29;20717;-73
2022/06/20 03:24:17;;;;;;;9.52;3.70;;;20.70;99.90;;;;;;4950458;29;20977;-73
2022/06/20 03:26:44;;;;;;;7.40;3.00;;;20.70;99.90;;;;;;4952827;28;20206;-73
2022/06/20 03:29:15;;;;;;;8.93;3.45;;;20.80;99.90;;;;;;4951175;28;20218;-73
2022/06/20 03:31:42;;;;;;;7.15;2.85;;;20.70;99.90;;;;;;4951185;28;20226;-73
2022/06/20 03:34:12;;;;;;;7.63;3.05;;;20.70;99.90;;;;;;4948564;29;20246;-72
2022/06/20 03:36:41;;;;;;;7.87;3.10;;;20.70;99.90;;;;;;4953335;28;20202;-73
2022/06/20 03:39:08;;;;;;;6.97;2.95;;;20.50;99.90;;;;;;4949016;28;20693;-73
2022/06/20 03:41:35;;;;;;;7.83;3.00;;;20.50;99.90;;;;;;4952600;28;20226;-73
2022/06/20 03:44:19;;;;;;;8.00;3.57;;;20.50;99.90;;;;;;4953200;28;20203;-72
2022/06/20 03:47:10;;;;;;;5.97;2.60;;;20.50;99.90;;;;;;4955803;29;20202;-73
2022/06/20 03:50:00;;;;;;;4.07;2.83;;;20.50;99.90;;;;;;4954243;28;20286;-73
2022/06/20 03:52:33;;;;;;;6.87;3.17;;;20.50;99.90;;;;;;4956473;28;20218;-73
2022/06/20 03:55:14;;;;;;;6.00;2.90;;;20.50;99.90;;;;;;4952626;29;20693;-73
2022/06/20 03:58:13;;;;;;;6.57;2.93;;;20.50;99.90;;;;;;4948270;28;20269;-73
2022/06/20 04:00:47;;;;;;;6.53;3.00;;;20.60;99.90;;;;;;4947934;28;20273;-73
2022/06/20 04:03:21;;;;;;;7.87;3.30;;;20.70;99.90;;;;;;4948196;28;20227;-73
2022/06/20 04:06:01;;;;;;;16.25;4.25;;;20.70;99.90;;;;;;4949548;29;20212;-72
2022/06/20 04:11:36;;;;;;;9.43;4.55;;;21.00;99.90;;;;;;4942432;29;20859;-73
2022/06/20 04:14:20;;;;;;;12.82;3.97;;;21.10;99.90;;;;;;4949308;29;20217;-73
2022/06/20 04:16:53;;;;;;;7.25;4.05;;;21.20;99.90;;;;;;4952446;28;20194;-71
2022/06/20 04:19:29;;;;;;;8.57;3.83;;;21.20;99.90;;;;;;4950858;29;20663;-73
2022/06/20 04:22:09;;;;;;;12.07;3.92;;;21.20;99.90;;;;;;4947404;29;20730;-73
2022/06/20 04:24:47;;;;;;;7.15;3.78;;;21.20;99.90;;;;;;4951701;28;20214;-70
2022/06/20 04:27:35;;;;;;;7.88;3.85;;;21.20;99.90;;;;;;4949919;29;20564;-72
2022/06/20 04:30:06;;;;;;;11.52;4.10;;;21.10;99.90;;;;;;4952108;28;20198;-73
2022/06/20 04:32:38;;;;;;;6.13;3.35;;;21.10;99.90;;;;;;4949796;28;20222;-73
2022/06/20 04:35:24;;;;;;;7.95;3.33;;;21.00;99.90;;;;;;4945702;28;20199;-73
2022/06/20 04:37:55;;;;;;;8.17;3.00;;;21.00;99.90;;;;;;4943759;29;20214;-73
2022/06/20 04:40:32;;;;;;;5.57;3.10;;;20.90;99.90;;;;;;4945270;29;20407;-73
2022/06/20 04:43:26;;;;;;;10.52;3.47;;;20.90;99.90;;;;;;4951794;28;20226;-73
2022/06/20 04:46:03;;;;;;;6.07;3.10;;;20.80;99.90;;;;;;4949986;29;20753;-73
2022/06/20 04:48:30;;;;;;;7.50;2.85;;;20.90;99.90;;;;;;4945116;28;20226;-73
2022/06/20 04:51:00;;;;;;;7.88;3.13;;;20.90;99.90;;;;;;4950400;29;20590;-73
2022/06/20 04:53:36;;;;;;;7.50;3.10;;;20.80;99.90;;;;;;4949511;29;20256;-73
2022/06/20 04:56:06;;;;;;;7.72;3.30;;;20.80;99.90;;;;;;4945587;29;20677;-72
2022/06/20 04:58:39;;;;;;;7.97;3.45;;;20.90;99.90;;;;;;4944065;29;20202;-73
2022/06/20 05:01:07;;;;;;;7.28;2.95;;;20.80;99.90;;;;;;4950585;29;20214;-73
2022/06/20 05:03:40;;;;;;;7.80;3.10;;;20.90;99.90;;;;;;4951344;28;20677;-73
2022/06/20 05:06:19;;;;;;;8.27;3.17;;;20.80;99.90;;;;;;4941763;29;20224;-72
2022/06/20 05:08:57;;;;;;;7.03;3.47;;;20.80;99.90;;;;;;4943210;29;20222;-72
2022/06/20 05:11:35;;;;;;;8.83;2.80;;;20.80;99.90;;;;;;4946268;29;20747;-72
2022/06/20 05:14:30;;;;;;;8.83;3.23;;;20.60;99.90;;;;;;4943986;29;20205;-71
2022/06/20 05:16:59;;;;;;;4.97;2.80;;;20.60;99.90;;;;;;4948861;29;20202;-72
2022/06/20 05:19:31;;;;;;;8.13;2.57;;;20.40;99.90;;;;;;4949668;28;20202;-73
2022/06/20 05:22:00;;;;;;;3.20;2.30;;;20.40;99.90;;;;;;4949388;28;20247;-73
2022/06/20 05:24:33;;;;;;;4.00;2.60;;;20.40;99.90;;;;;;4949867;28;20281;-72
2022/06/20 05:27:13;;;;;;;5.97;2.50;;;20.40;99.90;;;;;;4943124;29;20209;-72
2022/06/20 05:29:43;;;;;;;4.80;2.77;;;20.50;99.90;;;;;;4948554;28;20221;-72
2022/06/20 05:32:14;;;;;;;4.60;2.57;;;20.50;99.90;;;;;;4946266;29;20228;-73
2022/06/20 05:35:01;;;;;;;5.50;2.90;;;20.70;99.90;;;;;;4948786;28;20202;-72
2022/06/20 05:37:58;;;;;;;6.10;2.77;;;20.70;99.90;;;;;;4947123;29;20209;-72
2022/06/20 05:40:31;;;;;;;5.70;2.50;;;20.90;99.90;;;;;;4951036;28;20202;-72
2022/06/20 05:42:58;;;;;;;8.52;2.97;;;21.20;99.90;;;;;;4946700;29;20218;-72
2022/06/20 05:45:28;;;;;;;5.43;2.45;;;21.40;99.90;;;;;;4950821;28;20239;-72
2022/06/20 05:47:59;;;;;;;6.13;2.45;;;21.60;99.90;;;;;;4950336;29;21112;-72
2022/06/20 05:50:44;;;;;;;8.73;2.50;;;21.60;99.90;;;;;;4942857;28;20190;-72
2022/06/20 05:53:24;;;;;;;4.47;2.42;;;21.60;99.90;;;;;;4941249;29;20475;-73
2022/06/20 05:55:54;;;;;;;6.45;2.30;;;21.60;99.90;;;;;;4936089;28;20238;-69
2022/06/20 05:58:29;;;;;;;7.53;2.38;;;21.60;99.90;;;;;;4937742;29;20206;-70
2022/06/20 06:00:59;;;;;;;5.05;3.00;;;21.40;99.90;;;;;;4937411;28;20589;-70
2022/06/20 06:03:42;;;;;;;4.97;2.58;;;21.40;99.90;;;;;;4941412;29;20705;-71
2022/06/20 06:06:19;;;;;;;3.90;2.58;;;21.40;99.90;;;;;;4936842;29;20202;-72
2022/06/20 06:09:04;;;;;;;4.60;2.65;;;21.20;99.90;;;;;;4941131;28;20222;-73
2022/06/20 06:11:53;;;;;;;4.95;2.50;;;21.10;99.90;;;;;;4940848;29;20248;-70
2022/06/20 06:14:30;;;;;;;6.50;2.20;;;21.00;99.90;;;;;;4940395;29;20224;-72
2022/06/20 06:17:14;;;;;;;5.28;2.75;;;21.10;99.90;;;;;;4940839;28;20214;-72
2022/06/20 06:20:04;;;;;;;9.80;2.97;;;21.10;99.90;;;;;;4941495;28;20692;-72
2022/06/20 06:22:39;;;;;;;6.00;2.85;;;20.90;99.90;;;;;;4940223;29;20242;-70
2022/06/20 06:25:27;;;;;;;7.22;2.65;;;20.80;99.90;;;;;;4941629;29;20205;-71
2022/06/20 06:28:10;;;;;;;8.48;2.67;;;20.80;99.90;;;;;;4940457;28;20212;-71
2022/06/20 06:30:42;;;;;;;7.78;3.47;;;20.50;99.90;;;;;;4935972;28;20198;-70
2022/06/20 06:33:09;;;;;;;8.55;2.90;;;20.50;99.90;;;;;;4939445;28;20218;-70
2022/06/20 06:35:45;;;;;;;6.97;3.10;;;20.70;99.90;;;;;;4940304;28;20201;-70
2022/06/20 06:38:25;;;;;;;16.17;3.93;;;20.70;99.90;;;;;;4939708;28;20909;-71
2022/06/20 06:40:54;;;;;;;8.40;3.17;;;20.70;99.90;;;;;;4939422;28;20205;-71
2022/06/20 06:43:28;;;;;;;6.13;2.83;;;20.70;99.90;;;;;;4938820;29;20237;-70
2022/06/20 06:45:59;;;;;;;8.07;3.00;;;20.50;99.90;;;;;;4939294;29;20213;-71
2022/06/20 06:48:31;;;;;;;6.93;3.27;;;20.30;99.90;;;;;;4939215;29;20218;-72
2022/06/20 06:51:09;;;;;;;6.60;2.73;;;20.10;99.90;;;;;;4940510;29;20298;-71
2022/06/20 06:54:04;;;;;;;6.20;3.33;;;19.90;99.90;;;;;;4937645;29;20210;-71
2022/06/20 06:56:37;;;;;;;6.30;2.80;;;19.90;99.90;;;;;;4945281;28;20320;-70
2022/06/20 06:59:13;;;;;;;4.70;3.07;;;19.80;99.90;;;;;;4938932;29;20213;-70
2022/06/20 07:01:52;;;;;;;4.77;3.13;;;19.80;99.90;;;;;;4938893;28;20272;-71
2022/06/20 07:04:26;;;;;;;3.37;3.03;;;19.80;99.90;;;;;;4938185;29;20233;-71
2022/06/20 07:07:00;;;;;;;5.47;3.07;;;19.70;99.90;;;;;;4940821;28;20193;-72
2022/06/20 07:09:32;;;;;;;7.00;2.70;;;19.80;99.90;;;;;;4939640;29;20235;-71
2022/06/20 07:12:26;;;;;;;4.17;2.90;;;19.80;99.90;;;;;;4938239;28;20269;-71
2022/06/20 07:15:17;;;;;;;5.03;3.07;;;19.80;99.90;;;;;;4939907;28;20222;-72
2022/06/20 07:18:00;;;;;;;7.50;3.10;;;20.00;99.90;;;;;;4938284;28;20666;-72
2022/06/20 07:20:38;;;;;;;5.37;2.80;;;20.10;99.90;;;;;;4936061;28;20419;-71
2022/06/20 07:23:11;;;;;;;5.10;2.80;;;20.20;99.90;;;;;;4939152;28;20238;-71
2022/06/20 07:25:44;;;;;;;6.23;3.50;;;20.40;99.90;;;;;;4939691;29;20290;-71
2022/06/20 07:28:18;;;;;;;6.75;2.85;;;20.70;99.90;;;;;;4939667;28;20229;-71
2022/06/20 07:30:53;;;;;;;5.15;2.88;;;21.00;99.90;;;;;;4938346;29;20205;-71
2022/06/20 07:33:30;;;;;;;4.97;2.55;;;21.40;99.90;;;;;;4939040;28;20230;-73
2022/06/20 07:35:59;;;;;;;5.85;2.85;;;21.80;99.90;;;;;;4939258;29;20327;-72
2022/06/20 07:38:36;;;;;;;6.00;2.90;;;21.90;99.90;;;;;;4938567;28;20685;-72
2022/06/20 07:41:10;;;;;;;4.72;3.00;;;21.80;99.90;;;;;;4938663;29;20697;-70
2022/06/20 07:43:43;;;;;;;4.93;2.50;;;21.40;99.90;;;;;;4940023;28;20206;-70
2022/06/20 07:46:23;;;;;;;3.97;2.80;;;21.30;99.90;;;;;;4939371;28;20661;-71
2022/06/20 07:48:52;;;;;;;6.63;2.90;;;21.30;99.90;;;;;;4939043;28;20222;-72
2022/06/20 07:51:29;;;;;;;4.10;2.65;;;21.20;99.90;;;;;;4938509;28;20230;-72
2022/06/20 07:54:02;;;;;;;5.30;3.03;;;21.20;99.90;;;;;;4939047;28;20210;-71
2022/06/20 07:56:37;;;;;;;4.73;2.77;;;20.90;99.90;;;;;;4938184;29;20674;-70
2022/06/20 07:59:20;;;;;;;3.53;2.70;;;20.60;99.90;;;;;;4938897;28;20216;-72
2022/06/20 08:02:03;;;;;;;3.97;2.60;;;20.10;99.90;;;;;;4937780;28;20229;-71
2022/06/20 08:04:32;;;;;;;6.50;2.70;;;20.00;99.90;;;;;;4937567;28;20305;-71
2022/06/20 08:07:23;;;;;;;4.00;2.77;;;20.10;99.90;;;;;;4939071;28;20241;-71
2022/06/20 08:09:57;;;;;;;4.37;2.10;;;20.00;99.90;;;;;;4944088;29;20309;-69
2022/06/20 08:12:47;;;;;;;2.83;1.80;;;19.80;99.90;;;;;;4937821;28;20223;-69
2022/06/20 08:15:23;;;;;;;2.10;1.90;;;19.30;99.90;;;;;;4938119;28;20194;-69
2022/06/20 08:17:51;;;;;;;1.80;1.70;;;19.10;99.90;;;;;;4938680;28;20206;-67
2022/06/20 08:20:19;;;;;;;6.40;2.00;;;18.90;99.90;;;;;;4938761;28;20202;-70
2022/06/20 08:22:54;;;;;;;1.70;1.60;;;18.70;99.90;;;;;;4937853;29;20234;-67
2022/06/20 08:25:41;;;;;;;2.10;1.70;;;18.60;99.90;;;;;;4937416;28;20250;-68
2022/06/20 08:28:19;;;;;;;2.17;1.60;;;18.40;99.90;;;;;;4939434;28;20229;-70
2022/06/20 08:30:56;;;;;;;2.37;1.70;;;18.20;99.90;;;;;;4938880;28;20199;-67
2022/06/20 08:33:28;;;;;;;1.70;1.60;;;18.30;99.90;;;;;;4935291;28;20554;-72
2022/06/20 08:36:16;;;;;;;1.30;1.20;;;18.40;99.90;;;;;;4937349;28;20198;-72
2022/06/20 08:39:10;;;;;;;1.30;1.20;;;18.50;99.90;;;;;;4937059;28;20214;-71
2022/06/20 08:41:43;;;;;;;1.60;1.20;;;18.60;99.90;;;;;;4937299;29;20238;-72
2022/06/20 08:44:28;;;;;;;1.47;1.17;;;18.80;99.90;;;;;;4937057;28;20218;-72
2022/06/20 08:47:16;;;;;;;1.40;1.30;;;18.70;99.90;;;;;;4937542;28;20520;-72
2022/06/20 08:49:55;;;;;;;1.40;1.30;;;18.70;99.90;;;;;;4936726;28;20223;-72
2022/06/20 08:52:45;;;;;;;1.20;1.10;;;18.60;99.90;;;;;;4936797;28;20343;-73
2022/06/20 08:55:28;;;;;;;1.93;1.30;;;18.30;99.90;;;;;;4937002;28;20256;-73
2022/06/20 08:57:57;;;;;;;1.30;1.20;;;18.30;99.90;;;;;;4937363;28;20933;-72
2022/06/20 09:01:07;;;;;;;2.43;1.40;;;18.40;99.90;;;;;;4935653;28;20209;-71
2022/06/20 09:03:46;;;;;;;1.63;1.53;;;18.40;99.90;;;;;;4934328;28;20213;-75
2022/06/20 09:06:42;;;;;;;1.60;1.50;;;18.50;99.90;;;;;;4936311;28;20836;-74
2022/06/20 09:09:28;;;;;;;1.60;1.50;;;18.50;99.90;;;;;;4936897;28;20234;-76
2022/06/20 09:12:04;;;;;;;1.80;1.50;;;18.30;99.90;;;;;;4937363;29;20249;-74
2022/06/20 09:14:34;;;;;;;1.80;1.30;;;18.40;99.90;;;;;;4935081;28;20210;-75
2022/06/20 09:17:20;;;;;;;1.40;1.30;;;18.50;99.90;;;;;;4935357;28;20207;-76
2022/06/20 09:20:08;;;;;;;1.60;1.40;;;18.40;99.90;;;;;;4934411;28;20577;-75
2022/06/20 09:22:53;;;;;;;1.53;1.20;;;18.50;99.90;;;;;;4935168;28;20229;-74
2022/06/20 09:25:41;;;;;;;1.30;1.20;;;18.60;99.90;;;;;;4935205;28;20206;-74
2022/06/20 09:28:25;;;;;;;1.30;1.17;;;18.80;99.90;;;;;;4939132;28;20214;-74
2022/06/20 09:31:03;;;;;;;1.40;1.30;;;18.90;99.90;;;;;;4929044;28;20206;-70
2022/06/20 09:34:00;;;;;;;1.00;1.00;;;19.00;99.90;;;;;;4932709;28;20205;-72
2022/06/20 09:36:47;;;;;;;1.87;1.30;;;19.00;99.90;;;;;;4930758;28;20202;-71
2022/06/20 09:39:34;;;;;;;2.00;1.60;;;19.00;99.90;;;;;;4932723;28;20210;-69
2022/06/20 09:42:30;;;;;;;3.57;2.17;;;18.80;99.90;;;;;;4931627;28;20231;-71
2022/06/20 09:45:23;;;;;;;3.50;2.00;;;18.60;99.90;;;;;;4931391;28;20218;-72
2022/06/20 09:51:55;;;;;;;2.57;2.37;;;18.20;99.90;;;;;;4926256;28;20273;-71
2022/06/20 09:54:49;;;;;;;4.03;2.57;;;18.20;99.90;;;;;;4935282;28;20308;-71
2022/06/20 09:57:32;;;;;;;2.80;2.60;;;18.30;99.90;;;;;;4935443;28;21963;-71
2022/06/20 10:00:09;;;;;;;3.13;2.83;;;18.00;99.90;;;;;;4931049;28;20210;-72
2022/06/20 10:02:59;;;;;;;5.20;3.20;;;17.90;99.90;;;;;;4935171;28;20272;-70
2022/06/20 10:05:45;;;;;;;3.57;2.77;;;18.00;99.90;;;;;;4934454;28;20239;-72
2022/06/20 10:08:25;;;;;;;4.07;2.60;;;18.10;99.90;;;;;;4933891;28;20213;-72
2022/06/20 10:10:58;;;;;;;2.80;2.50;;;18.10;99.90;;;;;;4932425;28;20615;-72
2022/06/20 10:13:31;;;;;;;2.80;2.47;;;18.20;99.90;;;;;;4936347;28;20198;-73
2022/06/20 10:16:06;;;;;;;3.97;2.40;;;18.10;99.90;;;;;;4934333;28;20206;-73
2022/06/20 10:18:38;;;;;;;4.37;2.33;;;18.00;99.90;;;;;;4930122;28;20233;-72
2022/06/20 10:21:21;;;;;;;3.47;2.97;;;17.90;99.90;;;;;;4934166;28;20228;-71
2022/06/20 10:24:15;;;;;;;2.50;2.30;;;17.90;99.90;;;;;;4935283;28;20265;-72
2022/06/20 10:27:00;;;;;;;5.73;2.80;;;17.80;99.90;;;;;;4933443;28;20206;-72
2022/06/20 10:30:01;;;;;;;4.03;3.00;;;17.60;99.90;;;;;;4935010;28;20218;-72
2022/06/20 10:33:16;;;;;;;2.77;2.47;;;17.50;99.90;;;;;;4934341;28;20230;-72
2022/06/20 10:36:01;;;;;;;3.63;2.67;;;17.50;99.90;;;;;;4962024;28;20211;-73
2022/06/20 10:38:47;;;;;;;3.13;2.33;;;17.70;99.90;;;;;;4936564;28;20202;-73
2022/06/20 10:41:20;;;;;;;3.43;2.53;;;17.60;99.90;;;;;;4935328;28;20191;-73
2022/06/20 10:43:58;;;;;;;4.00;2.57;;;17.60;99.90;;;;;;4933562;28;20277;-73
2022/06/20 10:46:49;;;;;;;3.87;2.37;;;17.50;99.90;;;;;;4935398;28;20511;-72
2022/06/20 10:49:26;;;;;;;2.90;2.20;;;17.40;99.90;;;;;;4938248;28;20226;-71
2022/06/20 10:52:12;;;;;;;2.40;1.87;;;17.50;99.90;;;;;;4936680;28;20690;-71
2022/06/20 10:55:18;;;;;;;3.20;2.20;;;17.50;99.90;;;;;;4938145;28;20206;-72
2022/06/20 10:57:59;;;;;;;2.80;2.30;;;17.50;99.90;;;;;;4939458;28;20566;-71
2022/06/20 11:00:30;;;;;;;2.30;2.10;;;17.50;99.90;;;;;;4939801;28;20211;-72
2022/06/20 11:03:17;;;;;;;4.33;2.17;;;17.40;99.90;;;;;;4938826;28;20222;-72
2022/06/20 11:06:22;;;;;;;1.97;1.80;;;17.60;99.90;;;;;;4940234;29;20266;-72
2022/06/20 11:09:04;;;;;;;2.00;1.80;;;17.70;99.90;;;;;;4940008;28;20210;-72
2022/06/20 11:11:56;;;;;;;2.10;1.63;;;17.50;99.90;;;;;;4937174;28;20214;-70
2022/06/20 11:14:33;;;;;;;1.50;1.33;;;17.70;99.90;;;;;;4938893;28;20229;-72
2022/06/20 11:17:15;;;;;;;2.23;1.27;;;18.10;99.90;;;;;;4938251;28;20209;-72
2022/06/20 11:20:08;;;;;;;4.80;1.30;;;18.40;99.90;;;;;;4938632;28;20198;-72
2022/06/20 11:22:37;;;;;;;2.93;1.53;;;18.10;99.90;;;;;;4940304;28;20225;-72
2022/06/20 11:25:22;;;;;;;4.20;1.40;;;17.80;99.90;;;;;;4939834;28;20787;-72
2022/06/20 11:28:19;;;;;;;1.63;1.40;;;17.70;99.90;;;;;;4937890;28;20205;-72
2022/06/20 11:30:55;;;;;;;2.07;1.40;;;17.70;99.90;;;;;;4933662;28;20230;-70
2022/06/20 11:34:00;;;;;;;2.87;1.30;;;17.60;99.90;;;;;;4937141;28;20214;-72
2022/06/20 11:36:40;;;;;;;1.87;1.40;;;17.40;99.90;;;;;;4938709;28;20202;-73
2022/06/20 11:39:29;;;;;;;1.73;1.23;;;17.40;99.90;;;;;;4937211;28;20230;-73
2022/06/20 11:42:09;;;;;;;1.83;1.00;;;17.50;99.90;;;;;;4933871;28;20272;-71
2022/06/20 11:44:52;;;;;;;2.00;1.20;;;17.70;99.90;;;;;;4934950;28;20301;-72
2022/06/20 11:47:45;;;;;;;1.53;1.20;;;17.80;99.90;;;;;;4931330;28;20838;-72
2022/06/20 11:50:31;;;;;;;1.20;1.10;;;17.90;99.90;;;;;;4934717;28;20229;-71
2022/06/20 11:53:16;;;;;;;1.20;1.10;;;17.70;99.90;;;;;;4935085;28;20230;-72
2022/06/20 11:55:49;;;;;;;1.80;1.00;;;17.80;99.90;;;;;;4938192;28;20205;-72
2022/06/20 11:58:27;;;;;;;1.30;1.07;;;17.80;99.90;;;;;;4935896;28;20205;-73
2022/06/20 12:01:15;;;;;;;2.03;1.20;;;17.80;99.90;;;;;;4936919;28;20210;-74
2022/06/20 12:03:52;;;;;;;1.00;0.90;;;18.00;99.90;;;;;;4938376;29;20215;-74
2022/06/20 12:06:35;;;;;;;1.50;1.10;;;18.00;99.90;;;;;;4938510;28;20206;-73
2022/06/20 12:09:05;;;;;;;2.67;1.30;;;17.90;99.90;;;;;;4936486;28;20206;-74
2022/06/20 12:11:39;;;;;;;0.80;0.80;;;17.90;99.90;;;;;;4939550;28;20237;-73
2022/06/20 12:14:24;;;;;;;1.27;0.80;;;17.90;99.90;;;;;;4937554;29;20194;-73
2022/06/20 12:16:55;;;;;;;2.03;0.70;;;17.90;99.90;;;;;;4938116;28;20205;-74
2022/06/20 12:25:22;;;;;;;0.67;0.67;;;17.60;99.90;;;;;;4937741;28;20198;-73
2022/06/20 12:27:51;;;;;;;0.90;0.87;;;17.70;99.90;;;;;;4936989;28;20248;-73
2022/06/20 12:30:18;;;;;;;1.77;0.80;;;17.70;99.90;;;;;;4936892;28;20226;-73
2022/06/20 12:32:49;;;;;;;0.70;0.70;;;17.80;99.90;;;;;;4937933;28;20230;-72
2022/06/20 12:35:21;;;;;;;1.80;0.50;;;17.90;99.90;;;;;;4937417;28;20948;-73
2022/06/20 12:38:13;;;;;;;0.63;0.63;;;17.90;99.90;;;;;;4937610;28;20199;-72
2022/06/20 12:40:48;;;;;;;0.50;0.50;;;17.80;99.90;;;;;;4937785;28;20624;-74
2022/06/20 12:43:31;;;;;;;0.60;0.60;;;17.80;99.90;;;;;;4938300;28;20229;-74
2022/06/20 12:46:09;;;;;;;0.60;0.60;;;17.70;99.90;;;;;;4937554;28;20214;-75
2022/06/20 12:48:54;;;;;;;1.40;0.70;;;17.70;99.90;;;;;;4937237;28;20209;-73
2022/06/20 12:51:42;;;;;;;2.43;0.77;;;17.30;99.90;;;;;;4937811;28;21010;-72
2022/06/20 12:54:34;;;;;;;1.53;0.80;;;17.20;99.90;;;;;;4938704;28;20293;-74
2022/06/20 12:57:09;;;;;;;1.17;0.90;;;17.10;99.90;;;;;;4938314;28;20205;-72
2022/06/20 13:00:13;;;;;;;5.30;0.80;;;17.20;99.90;;;;;;4937624;28;20203;-72
2022/06/20 13:03:09;;;;;;;0.80;0.80;;;17.20;99.90;;;;;;4935273;28;20230;-74
2022/06/20 13:06:14;;;;;;;1.23;1.00;;;17.30;99.90;;;;;;4937372;28;20242;-72
2022/06/20 13:08:55;;;;;;;2.20;0.80;;;17.50;99.90;;;;;;4935267;28;20206;-74
2022/06/20 13:11:49;;;;;;;1.50;0.80;;;17.50;99.90;;;;;;4937327;28;20234;-72
2022/06/20 13:15:01;;;;;;;1.03;0.80;;;17.50;99.90;;;;;;4950963;28;20736;-74
2022/06/20 13:17:53;;;;;;;0.77;0.70;;;17.60;99.90;;;;;;4937159;28;20206;-74
2022/06/20 13:20:44;;;;;;;0.80;0.67;;;17.70;99.90;;;;;;4936559;28;20207;-71
2022/06/20 13:23:14;;;;;;;1.30;0.80;;;17.80;99.90;;;;;;4937085;28;20272;-72
2022/06/20 13:25:51;;;;;;;1.60;0.83;;;17.90;99.90;;;;;;4936876;28;20206;-72
2022/06/20 13:28:33;;;;;;;1.47;0.87;;;17.90;99.90;;;;;;4936805;28;20209;-73
2022/06/20 13:31:16;;;;;;;0.80;0.80;;;18.40;99.90;;;;;;4936554;28;21762;-73
2022/06/20 13:34:03;;;;;;;0.70;0.70;;;18.70;99.90;;;;;;4937376;28;20615;-72
2022/06/20 13:36:52;;;;;;;2.50;0.77;;;18.40;99.90;;;;;;4936195;28;20285;-70
2022/06/20 13:39:32;;;;;;;0.60;0.60;;;18.70;99.90;;;;;;4936784;28;20697;-73
2022/06/20 13:42:18;;;;;;;0.73;0.67;;;19.00;99.90;;;;;;4942821;29;20234;-73
2022/06/20 13:45:08;;;;;;;0.93;0.70;;;19.10;99.90;;;;;;4936658;28;20305;-72
2022/06/20 13:47:51;;;;;;;1.47;0.70;;;19.20;99.90;;;;;;4935697;28;20209;-72
2022/06/20 13:50:43;;;;;;;0.60;0.60;;;18.80;99.90;;;;;;4936685;29;20286;-73
2022/06/20 13:53:37;;;;;;;1.47;1.00;;;18.50;99.90;;;;;;4936976;28;20218;-73
2022/06/20 13:56:30;;;;;;;1.57;0.80;;;18.40;99.90;;;;;;4934056;29;20214;-73
2022/06/20 13:59:03;;;;;;;1.80;1.10;;;18.40;99.90;;;;;;4937928;29;20198;-72